createdAt,value
2024-04-08T00:11:47.851Z,4.10
2024-04-08T00:24:47.860Z,3.50
2024-04-08T00:37:47.880Z,5.10
2024-04-08T00:50:47.925Z,4.00
2024-04-08T01:03:47.965Z,3.40
2024-04-08T01:16:48.061Z,4.00
2024-04-08T01:29:48.111Z,5.00
2024-04-08T01:42:48.072Z,3.00
2024-04-08T01:55:48.143Z,3.50
2024-04-08T05:19:48.209Z,1.70
2024-04-08T05:33:47.695Z,2.10
2024-04-08T05:47:47.572Z,1.50
2024-04-08T06:01:47.555Z,40.90
2024-04-08T06:15:47.507Z,35.70
2024-04-08T06:29:47.524Z,23.75
2024-04-08T06:43:47.524Z,23.80
2024-04-08T06:57:47.543Z,18.10
2024-04-08T07:11:47.556Z,15.80
2024-04-08T07:25:47.576Z,17.30
2024-04-08T07:39:47.671Z,14.60
2024-04-08T07:53:47.650Z,12.20
2024-04-08T08:07:47.615Z,10.30
2024-04-08T08:21:47.639Z,9.20
2024-04-08T08:35:47.669Z,6.90
2024-04-08T08:49:47.653Z,8.10
2024-04-08T09:03:47.659Z,7.80
2024-04-08T09:17:47.691Z,6.20
2024-04-08T09:31:47.716Z,5.65
2024-04-08T09:45:47.699Z,5.70
2024-04-08T09:59:47.785Z,3.60
2024-04-08T10:13:47.742Z,3.20
2024-04-08T10:27:47.737Z,4.60
2024-04-08T10:41:47.762Z,4.30
2024-04-08T10:55:47.758Z,3.60
2024-04-08T11:10:47.829Z,6.10
2024-04-08T11:24:47.775Z,4.50
2024-04-08T11:38:47.794Z,4.20
2024-04-08T11:52:47.775Z,7.80
2024-04-08T12:06:47.809Z,4.80
2024-04-08T12:20:47.886Z,5.80
2024-04-08T12:35:47.900Z,6.00
2024-04-08T12:49:47.897Z,6.70
2024-04-08T13:03:48.047Z,7.70
2024-04-08T13:17:48.045Z,6.10
2024-04-08T13:31:48.002Z,6.50
2024-04-08T13:45:48.037Z,7.30
2024-04-08T13:59:48.096Z,8.30
2024-04-08T14:13:48.054Z,9.00
2024-04-08T14:27:48.055Z,8.10
2024-04-08T14:41:48.148Z,13.90
2024-04-08T14:55:48.356Z,15.60
2024-04-08T15:09:48.113Z,14.10
2024-04-08T15:23:48.173Z,16.70
2024-04-08T15:37:48.137Z,12.30
2024-04-08T15:51:48.185Z,15.20
2024-04-08T16:05:48.235Z,12.50
2024-04-08T16:19:48.230Z,9.10
2024-04-08T16:33:48.286Z,10.40
2024-04-08T16:47:48.272Z,10.50
2024-04-08T17:01:48.238Z,9.20
2024-04-08T17:15:48.319Z,6.90
2024-04-08T17:29:48.387Z,6.00
2024-04-08T17:43:48.332Z,6.20
2024-04-08T17:57:48.334Z,4.90
2024-04-08T18:11:51.215Z,4.90
2024-04-08T18:24:48.449Z,4.50
2024-04-08T18:37:48.407Z,4.70
2024-04-08T18:50:48.455Z,4.60
2024-04-08T19:03:48.504Z,4.60
2024-04-08T19:16:48.460Z,4.30
2024-04-08T19:29:48.436Z,3.20
2024-04-08T19:42:48.450Z,4.20
2024-04-08T19:55:48.452Z,6.50
2024-04-08T20:08:48.496Z,4.30
2024-04-08T20:21:48.527Z,8.20
2024-04-08T20:34:48.511Z,6.70
2024-04-08T20:47:48.628Z,5.50
2024-04-08T21:00:48.541Z,5.80
2024-04-08T21:13:48.531Z,4.80
2024-04-08T21:26:48.527Z,5.60
2024-04-08T21:39:48.529Z,5.10
2024-04-08T21:52:48.539Z,6.00
2024-04-08T22:05:48.554Z,4.80
2024-04-08T22:18:48.596Z,4.40
2024-04-08T22:31:48.555Z,4.80
2024-04-08T22:44:48.585Z,3.60
2024-04-08T22:57:48.590Z,3.30
2024-04-08T23:10:48.579Z,3.10
2024-04-08T23:23:48.578Z,3.90
2024-04-08T23:36:48.597Z,3.50
2024-04-08T23:49:48.612Z,3.00
